Terminal Aerodrome Forecast
Issued by NWS

Home | Current Version | Previous Version | Text Only | Print | Product List | Glossary On
Versions: 1 2 3 4 5 6 7 8 9 10 11 12 13
000
FTUS45 KGGW 230700 AAA
TAFSDY
TAF AMD
KSDY 230711Z 2307/2406 11015KT P6SM BKN120
     FM231000 07012KT P6SM VCSH SCT050 BKN090
     FM231200 08011KT 5SM -SHRA SCT030 BKN050
     FM231500 27016KT 5SM -SHRA SCT025 BKN060
     FM240000 25012KT P6SM BKN100
      AMD LTD TO CLD VIS AND WIND=

USA.gov is the U.S. government's official web portal to all federal, state and local government web resources and services.